Terminal Aerodrome Forecast
Issued by NWS Twin Cities, MN

Home | Current Version | Previous Version | Graphics & Text | Print | Product List | Glossary On
Versions: 1 2 3 4 5 6 7 8 9 10 11 12 13
156
FTUS43 KMPX 200520
TAFSTC
TAF
KSTC 200520Z 2006/2106 06009KT P6SM OVC090
     FM201600 07010G18KT 6SM -RA BR SCT020 OVC040
     FM201900 06011G19KT 4SM RA BR SCT010 OVC018
     FM202200 06009G16KT 3SM RA BR OVC008
     FM210200 04005KT 2SM -DZ OVC005=

USA.gov is the U.S. government's official web portal to all federal, state and local government web resources and services.